sensor_id;sensor_type;location;lat;lon;timestamp;P1;durP1;ratioP1;P2;durP2;ratioP2
13698;SDS011;6921;53.642;9.956;2023-06-22T00:00:58;4.18;;;3.67;;
13698;SDS011;6921;53.642;9.956;2023-06-22T00:03:05;4.80;;;4.15;;
13698;SDS011;6921;53.642;9.956;2023-06-22T00:05:11;5.43;;;3.70;;
13698;SDS011;6921;53.642;9.956;2023-06-22T00:07:14;4.93;;;3.63;;
13698;SDS011;6921;53.642;9.956;2023-06-22T00:09:20;4.50;;;4.10;;
13698;SDS011;6921;53.642;9.956;2023-06-22T00:11:26;4.43;;;4.00;;
13698;SDS011;6921;53.642;9.956;2023-06-22T00:13:32;5.18;;;3.63;;
13698;SDS011;6921;53.642;9.956;2023-06-22T00:15:37;4.45;;;4.05;;
13698;SDS011;6921;53.642;9.956;2023-06-22T00:17:51;6.10;;;4.47;;
13698;SDS011;6921;53.642;9.956;2023-06-22T00:19:57;4.38;;;3.97;;
13698;SDS011;6921;53.642;9.956;2023-06-22T00:22:02;4.80;;;4.30;;
13698;SDS011;6921;53.642;9.956;2023-06-22T00:24:05;4.85;;;4.15;;
13698;SDS011;6921;53.642;9.956;2023-06-22T00:26:10;4.47;;;4.07;;
13698;SDS011;6921;53.642;9.956;2023-06-22T00:28:13;4.75;;;4.35;;
13698;SDS011;6921;53.642;9.956;2023-06-22T00:30:22;5.43;;;4.38;;
13698;SDS011;6921;53.642;9.956;2023-06-22T00:32:26;4.90;;;4.35;;
13698;SDS011;6921;53.642;9.956;2023-06-22T00:34:30;4.63;;;4.22;;
13698;SDS011;6921;53.642;9.956;2023-06-22T00:36:36;4.60;;;4.07;;
13698;SDS011;6921;53.642;9.956;2023-06-22T00:38:42;5.68;;;4.25;;
13698;SDS011;6921;53.642;9.956;2023-06-22T00:40:47;4.78;;;4.13;;
13698;SDS011;6921;53.642;9.956;2023-06-22T00:42:53;5.43;;;4.50;;
13698;SDS011;6921;53.642;9.956;2023-06-22T00:44:57;5.32;;;4.15;;
13698;SDS011;6921;53.642;9.956;2023-06-22T00:47:03;4.68;;;4.13;;
13698;SDS011;6921;53.642;9.956;2023-06-22T00:49:08;4.90;;;4.40;;
13698;SDS011;6921;53.642;9.956;2023-06-22T00:51:12;5.40;;;4.88;;
13698;SDS011;6921;53.642;9.956;2023-06-22T00:53:15;4.93;;;4.50;;
13698;SDS011;6921;53.642;9.956;2023-06-22T00:55:20;4.45;;;4.03;;
13698;SDS011;6921;53.642;9.956;2023-06-22T00:57:25;5.00;;;4.50;;
13698;SDS011;6921;53.642;9.956;2023-06-22T00:59:29;6.13;;;3.90;;
13698;SDS011;6921;53.642;9.956;2023-06-22T01:01:33;6.88;;;4.40;;
13698;SDS011;6921;53.642;9.956;2023-06-22T01:03:44;4.88;;;4.38;;
13698;SDS011;6921;53.642;9.956;2023-06-22T01:05:48;4.95;;;4.43;;
13698;SDS011;6921;53.642;9.956;2023-06-22T01:07:58;5.05;;;4.55;;
13698;SDS011;6921;53.642;9.956;2023-06-22T01:10:10;5.13;;;4.55;;
13698;SDS011;6921;53.642;9.956;2023-06-22T01:12:18;5.85;;;4.90;;
13698;SDS011;6921;53.642;9.956;2023-06-22T01:14:23;5.30;;;4.80;;
13698;SDS011;6921;53.642;9.956;2023-06-22T01:16:31;5.40;;;4.90;;
13698;SDS011;6921;53.642;9.956;2023-06-22T01:18:37;6.40;;;4.57;;
13698;SDS011;6921;53.642;9.956;2023-06-22T01:20:45;5.55;;;4.90;;
13698;SDS011;6921;53.642;9.956;2023-06-22T01:22:53;5.38;;;4.88;;
13698;SDS011;6921;53.642;9.956;2023-06-22T01:25:09;5.65;;;4.70;;
13698;SDS011;6921;53.642;9.956;2023-06-22T01:27:17;6.40;;;4.53;;
13698;SDS011;6921;53.642;9.956;2023-06-22T01:29:32;4.47;;;4.07;;
13698;SDS011;6921;53.642;9.956;2023-06-22T01:31:36;5.10;;;4.60;;
13698;SDS011;6921;53.642;9.956;2023-06-22T01:33:41;5.30;;;4.35;;
13698;SDS011;6921;53.642;9.956;2023-06-22T01:35:47;4.90;;;4.18;;
13698;SDS011;6921;53.642;9.956;2023-06-22T01:37:51;4.60;;;4.20;;
13698;SDS011;6921;53.642;9.956;2023-06-22T01:39:55;6.43;;;4.60;;
13698;SDS011;6921;53.642;9.956;2023-06-22T01:41:59;4.85;;;3.78;;
13698;SDS011;6921;53.642;9.956;2023-06-22T01:44:03;4.28;;;3.90;;
13698;SDS011;6921;53.642;9.956;2023-06-22T01:46:10;5.03;;;4.53;;
13698;SDS011;6921;53.642;9.956;2023-06-22T01:48:15;4.78;;;4.28;;
13698;SDS011;6921;53.642;9.956;2023-06-22T01:50:20;4.30;;;4.00;;
13698;SDS011;6921;53.642;9.956;2023-06-22T01:52:24;5.32;;;4.63;;
13698;SDS011;6921;53.642;9.956;2023-06-22T01:54:27;4.90;;;4.40;;
13698;SDS011;6921;53.642;9.956;2023-06-22T01:56:31;5.60;;;5.07;;
13698;SDS011;6921;53.642;9.956;2023-06-22T01:58:36;5.20;;;4.70;;
13698;SDS011;6921;53.642;9.956;2023-06-22T02:00:44;6.30;;;4.78;;
13698;SDS011;6921;53.642;9.956;2023-06-22T02:02:58;5.22;;;4.72;;
13698;SDS011;6921;53.642;9.956;2023-06-22T02:05:05;6.13;;;5.10;;
13698;SDS011;6921;53.642;9.956;2023-06-22T02:07:12;6.20;;;4.72;;
13698;SDS011;6921;53.642;9.956;2023-06-22T02:09:19;5.32;;;4.80;;
13698;SDS011;6921;53.642;9.956;2023-06-22T02:11:24;5.65;;;5.05;;
13698;SDS011;6921;53.642;9.956;2023-06-22T02:13:30;5.90;;;5.05;;
13698;SDS011;6921;53.642;9.956;2023-06-22T02:15:35;5.40;;;4.90;;
13698;SDS011;6921;53.642;9.956;2023-06-22T02:17:39;5.63;;;4.90;;
13698;SDS011;6921;53.642;9.956;2023-06-22T02:19:48;5.97;;;5.13;;
13698;SDS011;6921;53.642;9.956;2023-06-22T02:21:51;5.85;;;5.20;;
13698;SDS011;6921;53.642;9.956;2023-06-22T02:23:55;7.90;;;5.60;;
13698;SDS011;6921;53.642;9.956;2023-06-22T02:25:59;6.85;;;5.90;;
13698;SDS011;6921;53.642;9.956;2023-06-22T02:28:06;6.03;;;5.40;;
13698;SDS011;6921;53.642;9.956;2023-06-22T02:30:12;6.25;;;5.65;;
13698;SDS011;6921;53.642;9.956;2023-06-22T02:32:17;6.82;;;6.22;;
13698;SDS011;6921;53.642;9.956;2023-06-22T02:34:23;6.60;;;5.43;;
13698;SDS011;6921;53.642;9.956;2023-06-22T02:36:28;6.38;;;5.72;;
13698;SDS011;6921;53.642;9.956;2023-06-22T02:38:34;6.15;;;5.55;;
13698;SDS011;6921;53.642;9.956;2023-06-22T02:40:38;6.28;;;5.68;;
13698;SDS011;6921;53.642;9.956;2023-06-22T02:42:43;7.63;;;5.75;;
13698;SDS011;6921;53.642;9.956;2023-06-22T02:44:47;7.53;;;5.10;;
13698;SDS011;6921;53.642;9.956;2023-06-22T02:46:53;5.90;;;5.32;;
13698;SDS011;6921;53.642;9.956;2023-06-22T02:48:59;5.90;;;5.40;;
13698;SDS011;6921;53.642;9.956;2023-06-22T02:51:03;5.35;;;4.95;;
13698;SDS011;6921;53.642;9.956;2023-06-22T02:53:08;7.60;;;5.45;;
13698;SDS011;6921;53.642;9.956;2023-06-22T02:55:11;5.93;;;5.30;;
13698;SDS011;6921;53.642;9.956;2023-06-22T02:57:15;9.02;;;6.82;;
13698;SDS011;6921;53.642;9.956;2023-06-22T02:59:18;8.20;;;6.45;;
13698;SDS011;6921;53.642;9.956;2023-06-22T03:01:25;7.72;;;6.93;;
13698;SDS011;6921;53.642;9.956;2023-06-22T03:03:29;10.77;;;8.18;;
13698;SDS011;6921;53.642;9.956;2023-06-22T03:05:33;8.73;;;7.85;;
13698;SDS011;6921;53.642;9.956;2023-06-22T03:07:36;7.53;;;6.82;;
13698;SDS011;6921;53.642;9.956;2023-06-22T03:09:41;7.65;;;6.95;;
13698;SDS011;6921;53.642;9.956;2023-06-22T03:11:46;8.57;;;6.68;;
13698;SDS011;6921;53.642;9.956;2023-06-22T03:13:50;7.80;;;7.00;;
13698;SDS011;6921;53.642;9.956;2023-06-22T03:15:54;8.98;;;7.32;;
13698;SDS011;6921;53.642;9.956;2023-06-22T03:17:58;9.20;;;6.88;;
13698;SDS011;6921;53.642;9.956;2023-06-22T03:20:02;8.60;;;7.70;;
13698;SDS011;6921;53.642;9.956;2023-06-22T03:22:10;9.20;;;8.30;;
13698;SDS011;6921;53.642;9.956;2023-06-22T03:24:14;11.07;;;9.38;;
13698;SDS011;6921;53.642;9.956;2023-06-22T03:26:19;10.23;;;8.77;;
13698;SDS011;6921;53.642;9.956;2023-06-22T03:28:24;9.70;;;8.18;;
13698;SDS011;6921;53.642;9.956;2023-06-22T03:30:28;9.07;;;8.18;;
13698;SDS011;6921;53.642;9.956;2023-06-22T03:32:32;9.55;;;8.20;;
13698;SDS011;6921;53.642;9.956;2023-06-22T03:34:36;9.95;;;8.63;;
13698;SDS011;6921;53.642;9.956;2023-06-22T03:36:41;8.75;;;7.82;;
13698;SDS011;6921;53.642;9.956;2023-06-22T03:38:47;8.90;;;8.00;;
13698;SDS011;6921;53.642;9.956;2023-06-22T03:40:51;8.88;;;7.53;;
13698;SDS011;6921;53.642;9.956;2023-06-22T03:42:56;10.57;;;7.63;;
13698;SDS011;6921;53.642;9.956;2023-06-22T03:45:00;8.80;;;7.90;;
13698;SDS011;6921;53.642;9.956;2023-06-22T03:47:05;9.60;;;8.30;;
13698;SDS011;6921;53.642;9.956;2023-06-22T03:49:10;11.02;;;8.88;;
13698;SDS011;6921;53.642;9.956;2023-06-22T03:51:14;9.77;;;8.45;;
13698;SDS011;6921;53.642;9.956;2023-06-22T03:53:17;9.63;;;7.90;;
13698;SDS011;6921;53.642;9.956;2023-06-22T03:55:21;9.50;;;8.60;;
13698;SDS011;6921;53.642;9.956;2023-06-22T03:57:24;10.07;;;8.90;;
13698;SDS011;6921;53.642;9.956;2023-06-22T03:59:32;10.70;;;9.18;;
13698;SDS011;6921;53.642;9.956;2023-06-22T04:01:36;10.23;;;8.77;;
13698;SDS011;6921;53.642;9.956;2023-06-22T04:03:40;10.73;;;8.50;;
13698;SDS011;6921;53.642;9.956;2023-06-22T04:05:44;9.18;;;8.27;;
13698;SDS011;6921;53.642;9.956;2023-06-22T04:07:47;10.18;;;8.63;;
13698;SDS011;6921;53.642;9.956;2023-06-22T04:09:51;10.48;;;8.13;;
13698;SDS011;6921;53.642;9.956;2023-06-22T04:11:55;9.18;;;8.13;;
13698;SDS011;6921;53.642;9.956;2023-06-22T04:13:58;10.85;;;7.70;;
13698;SDS011;6921;53.642;9.956;2023-06-22T04:16:04;10.55;;;8.00;;
13698;SDS011;6921;53.642;9.956;2023-06-22T04:18:09;8.65;;;7.85;;
13698;SDS011;6921;53.642;9.956;2023-06-22T04:20:15;8.80;;;7.88;;
13698;SDS011;6921;53.642;9.956;2023-06-22T04:22:22;8.75;;;7.85;;
13698;SDS011;6921;53.642;9.956;2023-06-22T04:24:25;10.35;;;7.95;;
13698;SDS011;6921;53.642;9.956;2023-06-22T04:26:29;8.55;;;7.40;;
13698;SDS011;6921;53.642;9.956;2023-06-22T04:28:38;8.40;;;7.50;;
13698;SDS011;6921;53.642;9.956;2023-06-22T04:30:41;8.73;;;7.93;;
13698;SDS011;6921;53.642;9.956;2023-06-22T04:32:50;9.02;;;7.40;;
13698;SDS011;6921;53.642;9.956;2023-06-22T04:34:59;8.15;;;6.97;;
13698;SDS011;6921;53.642;9.956;2023-06-22T04:37:03;7.75;;;6.88;;
13698;SDS011;6921;53.642;9.956;2023-06-22T04:39:09;8.60;;;7.78;;
13698;SDS011;6921;53.642;9.956;2023-06-22T04:41:13;8.40;;;7.60;;
13698;SDS011;6921;53.642;9.956;2023-06-22T04:43:25;10.23;;;7.60;;
13698;SDS011;6921;53.642;9.956;2023-06-22T04:45:31;10.00;;;7.05;;
13698;SDS011;6921;53.642;9.956;2023-06-22T04:47:39;8.98;;;7.55;;
13698;SDS011;6921;53.642;9.956;2023-06-22T04:49:44;7.97;;;7.07;;
13698;SDS011;6921;53.642;9.956;2023-06-22T04:51:48;10.52;;;7.78;;
13698;SDS011;6921;53.642;9.956;2023-06-22T04:53:53;11.20;;;8.27;;
13698;SDS011;6921;53.642;9.956;2023-06-22T04:56:02;8.50;;;7.63;;
13698;SDS011;6921;53.642;9.956;2023-06-22T04:58:06;9.55;;;7.82;;
13698;SDS011;6921;53.642;9.956;2023-06-22T05:00:10;8.95;;;7.40;;
13698;SDS011;6921;53.642;9.956;2023-06-22T05:02:14;7.55;;;6.70;;
13698;SDS011;6921;53.642;9.956;2023-06-22T05:04:18;8.80;;;6.70;;
13698;SDS011;6921;53.642;9.956;2023-06-22T05:06:24;12.15;;;8.75;;
13698;SDS011;6921;53.642;9.956;2023-06-22T05:08:27;10.20;;;7.70;;
13698;SDS011;6921;53.642;9.956;2023-06-22T05:10:31;8.65;;;7.72;;
13698;SDS011;6921;53.642;9.956;2023-06-22T05:12:39;9.43;;;7.95;;
13698;SDS011;6921;53.642;9.956;2023-06-22T05:14:42;8.27;;;6.57;;
13698;SDS011;6921;53.642;9.956;2023-06-22T05:16:46;10.00;;;7.45;;
13698;SDS011;6921;53.642;9.956;2023-06-22T05:18:51;8.98;;;7.43;;
13698;SDS011;6921;53.642;9.956;2023-06-22T05:20:55;8.30;;;6.57;;
13698;SDS011;6921;53.642;9.956;2023-06-22T05:23:00;8.13;;;6.78;;
13698;SDS011;6921;53.642;9.956;2023-06-22T05:25:05;8.23;;;6.95;;
13698;SDS011;6921;53.642;9.956;2023-06-22T05:27:08;9.25;;;6.63;;
13698;SDS011;6921;53.642;9.956;2023-06-22T05:29:13;7.82;;;5.95;;
13698;SDS011;6921;53.642;9.956;2023-06-22T05:31:17;6.30;;;5.70;;
13698;SDS011;6921;53.642;9.956;2023-06-22T05:33:31;7.30;;;5.93;;
13698;SDS011;6921;53.642;9.956;2023-06-22T05:35:36;8.07;;;5.75;;
13698;SDS011;6921;53.642;9.956;2023-06-22T05:37:39;5.80;;;5.03;;
13698;SDS011;6921;53.642;9.956;2023-06-22T05:39:45;8.23;;;5.15;;
13698;SDS011;6921;53.642;9.956;2023-06-22T05:41:51;8.38;;;5.13;;
13698;SDS011;6921;53.642;9.956;2023-06-22T05:43:57;6.07;;;5.28;;
13698;SDS011;6921;53.642;9.956;2023-06-22T05:46:01;4.97;;;4.22;;
13698;SDS011;6921;53.642;9.956;2023-06-22T05:48:05;5.13;;;4.30;;
13698;SDS011;6921;53.642;9.956;2023-06-22T05:50:09;7.28;;;4.80;;
13698;SDS011;6921;53.642;9.956;2023-06-22T05:52:14;4.32;;;3.85;;
13698;SDS011;6921;53.642;9.956;2023-06-22T05:54:19;6.70;;;4.32;;
13698;SDS011;6921;53.642;9.956;2023-06-22T05:56:24;6.22;;;3.55;;
13698;SDS011;6921;53.642;9.956;2023-06-22T05:58:28;4.93;;;3.88;;
13698;SDS011;6921;53.642;9.956;2023-06-22T06:00:33;6.20;;;3.60;;
13698;SDS011;6921;53.642;9.956;2023-06-22T06:02:38;3.72;;;3.10;;
13698;SDS011;6921;53.642;9.956;2023-06-22T06:04:45;4.47;;;3.72;;
13698;SDS011;6921;53.642;9.956;2023-06-22T06:06:49;4.00;;;3.25;;
13698;SDS011;6921;53.642;9.956;2023-06-22T06:08:53;5.70;;;3.42;;
13698;SDS011;6921;53.642;9.956;2023-06-22T06:10:57;3.80;;;3.00;;
13698;SDS011;6921;53.642;9.956;2023-06-22T06:13:04;5.07;;;3.13;;
13698;SDS011;6921;53.642;9.956;2023-06-22T06:15:08;3.08;;;2.83;;
13698;SDS011;6921;53.642;9.956;2023-06-22T06:17:12;3.97;;;2.75;;
13698;SDS011;6921;53.642;9.956;2023-06-22T06:19:15;4.72;;;3.00;;
13698;SDS011;6921;53.642;9.956;2023-06-22T06:21:19;4.03;;;2.60;;
13698;SDS011;6921;53.642;9.956;2023-06-22T06:23:23;4.30;;;3.20;;
13698;SDS011;6921;53.642;9.956;2023-06-22T06:25:27;3.65;;;2.65;;
13698;SDS011;6921;53.642;9.956;2023-06-22T06:27:31;3.50;;;2.80;;
13698;SDS011;6921;53.642;9.956;2023-06-22T06:29:36;4.13;;;2.75;;
13698;SDS011;6921;53.642;9.956;2023-06-22T06:31:40;4.22;;;2.70;;
13698;SDS011;6921;53.642;9.956;2023-06-22T06:33:44;2.58;;;2.38;;
13698;SDS011;6921;53.642;9.956;2023-06-22T06:35:48;3.63;;;2.72;;
13698;SDS011;6921;53.642;9.956;2023-06-22T06:37:57;3.92;;;2.83;;
13698;SDS011;6921;53.642;9.956;2023-06-22T06:40:00;2.75;;;2.55;;
13698;SDS011;6921;53.642;9.956;2023-06-22T06:42:06;4.30;;;2.70;;
13698;SDS011;6921;53.642;9.956;2023-06-22T06:44:12;2.83;;;2.63;;
13698;SDS011;6921;53.642;9.956;2023-06-22T06:46:18;2.63;;;2.42;;
13698;SDS011;6921;53.642;9.956;2023-06-22T06:48:21;4.63;;;2.80;;
13698;SDS011;6921;53.642;9.956;2023-06-22T06:50:28;4.40;;;3.00;;
13698;SDS011;6921;53.642;9.956;2023-06-22T06:52:33;3.25;;;2.75;;
13698;SDS011;6921;53.642;9.956;2023-06-22T06:54:39;3.85;;;3.10;;
13698;SDS011;6921;53.642;9.956;2023-06-22T06:56:43;3.58;;;3.20;;
13698;SDS011;6921;53.642;9.956;2023-06-22T06:58:49;3.65;;;2.72;;
13698;SDS011;6921;53.642;9.956;2023-06-22T07:00:55;3.67;;;2.75;;
13698;SDS011;6921;53.642;9.956;2023-06-22T07:03:01;3.70;;;2.90;;
13698;SDS011;6921;53.642;9.956;2023-06-22T07:05:12;3.45;;;3.15;;
13698;SDS011;6921;53.642;9.956;2023-06-22T07:07:19;4.10;;;2.97;;
13698;SDS011;6921;53.642;9.956;2023-06-22T07:09:22;3.28;;;2.83;;
13698;SDS011;6921;53.642;9.956;2023-06-22T07:11:26;5.72;;;3.47;;
13698;SDS011;6921;53.642;9.956;2023-06-22T07:13:30;3.15;;;2.55;;
13698;SDS011;6921;53.642;9.956;2023-06-22T07:15:35;3.75;;;3.40;;
13698;SDS011;6921;53.642;9.956;2023-06-22T07:17:39;3.17;;;2.88;;
13698;SDS011;6921;53.642;9.956;2023-06-22T07:19:45;3.47;;;2.70;;
13698;SDS011;6921;53.642;9.956;2023-06-22T07:21:49;2.95;;;2.65;;
13698;SDS011;6921;53.642;9.956;2023-06-22T07:23:52;4.28;;;3.10;;
13698;SDS011;6921;53.642;9.956;2023-06-22T07:25:56;4.22;;;3.40;;
13698;SDS011;6921;53.642;9.956;2023-06-22T07:28:03;3.80;;;3.00;;
13698;SDS011;6921;53.642;9.956;2023-06-22T07:30:08;4.88;;;3.22;;
13698;SDS011;6921;53.642;9.956;2023-06-22T07:32:14;3.40;;;3.00;;
13698;SDS011;6921;53.642;9.956;2023-06-22T07:34:26;4.32;;;3.08;;
13698;SDS011;6921;53.642;9.956;2023-06-22T07:36:31;3.10;;;2.85;;
13698;SDS011;6921;53.642;9.956;2023-06-22T07:38:37;3.53;;;3.17;;
13698;SDS011;6921;53.642;9.956;2023-06-22T07:40:41;3.45;;;3.10;;
13698;SDS011;6921;53.642;9.956;2023-06-22T07:42:45;4.50;;;3.03;;
13698;SDS011;6921;53.642;9.956;2023-06-22T07:44:49;3.65;;;3.35;;
13698;SDS011;6921;53.642;9.956;2023-06-22T07:46:53;4.13;;;3.00;;
13698;SDS011;6921;53.642;9.956;2023-06-22T07:48:57;3.30;;;3.00;;
13698;SDS011;6921;53.642;9.956;2023-06-22T07:51:02;3.30;;;3.00;;
13698;SDS011;6921;53.642;9.956;2023-06-22T07:53:09;3.25;;;2.92;;
13698;SDS011;6921;53.642;9.956;2023-06-22T07:55:12;3.67;;;3.28;;
13698;SDS011;6921;53.642;9.956;2023-06-22T07:57:16;3.47;;;2.88;;
13698;SDS011;6921;53.642;9.956;2023-06-22T07:59:20;3.58;;;2.78;;
13698;SDS011;6921;53.642;9.956;2023-06-22T08:01:29;3.78;;;3.00;;
13698;SDS011;6921;53.642;9.956;2023-06-22T08:03:33;4.03;;;3.10;;
13698;SDS011;6921;53.642;9.956;2023-06-22T08:05:37;2.97;;;2.55;;
13698;SDS011;6921;53.642;9.956;2023-06-22T08:07:41;4.40;;;2.70;;
13698;SDS011;6921;53.642;9.956;2023-06-22T08:09:50;3.95;;;3.30;;
13698;SDS011;6921;53.642;9.956;2023-06-22T08:11:53;3.45;;;2.75;;
13698;SDS011;6921;53.642;9.956;2023-06-22T08:13:58;3.33;;;3.00;;
13698;SDS011;6921;53.642;9.956;2023-06-22T08:16:02;3.75;;;3.00;;
13698;SDS011;6921;53.642;9.956;2023-06-22T08:18:05;3.58;;;3.00;;
13698;SDS011;6921;53.642;9.956;2023-06-22T08:20:10;3.70;;;3.05;;
13698;SDS011;6921;53.642;9.956;2023-06-22T08:22:15;3.55;;;3.15;;
13698;SDS011;6921;53.642;9.956;2023-06-22T08:24:19;4.28;;;2.83;;
13698;SDS011;6921;53.642;9.956;2023-06-22T08:26:24;5.60;;;3.10;;
13698;SDS011;6921;53.642;9.956;2023-06-22T08:28:28;4.45;;;2.53;;
13698;SDS011;6921;53.642;9.956;2023-06-22T08:30:32;3.90;;;2.60;;
13698;SDS011;6921;53.642;9.956;2023-06-22T08:32:36;3.60;;;2.50;;
13698;SDS011;6921;53.642;9.956;2023-06-22T08:34:39;3.85;;;3.00;;
13698;SDS011;6921;53.642;9.956;2023-06-22T08:36:44;4.82;;;2.60;;
13698;SDS011;6921;53.642;9.956;2023-06-22T08:38:53;3.58;;;2.70;;
13698;SDS011;6921;53.642;9.956;2023-06-22T08:41:04;3.45;;;2.88;;
13698;SDS011;6921;53.642;9.956;2023-06-22T08:43:12;3.70;;;2.80;;
13698;SDS011;6921;53.642;9.956;2023-06-22T08:45:16;5.20;;;2.90;;
13698;SDS011;6921;53.642;9.956;2023-06-22T08:47:21;3.13;;;2.78;;
13698;SDS011;6921;53.642;9.956;2023-06-22T08:49:26;3.88;;;2.83;;
13698;SDS011;6921;53.642;9.956;2023-06-22T08:51:29;3.55;;;2.53;;
13698;SDS011;6921;53.642;9.956;2023-06-22T08:53:33;2.55;;;2.33;;
13698;SDS011;6921;53.642;9.956;2023-06-22T08:55:38;3.38;;;3.08;;
13698;SDS011;6921;53.642;9.956;2023-06-22T08:57:42;5.45;;;3.03;;
13698;SDS011;6921;53.642;9.956;2023-06-22T08:59:47;3.53;;;2.78;;
13698;SDS011;6921;53.642;9.956;2023-06-22T09:01:53;3.40;;;3.10;;
13698;SDS011;6921;53.642;9.956;2023-06-22T09:03:59;2.78;;;2.58;;
13698;SDS011;6921;53.642;9.956;2023-06-22T09:06:03;3.17;;;2.80;;
13698;SDS011;6921;53.642;9.956;2023-06-22T09:08:07;3.85;;;2.70;;
13698;SDS011;6921;53.642;9.956;2023-06-22T09:10:11;2.78;;;2.47;;
13698;SDS011;6921;53.642;9.956;2023-06-22T09:12:15;5.05;;;2.75;;
13698;SDS011;6921;53.642;9.956;2023-06-22T09:14:18;3.53;;;2.60;;
13698;SDS011;6921;53.642;9.956;2023-06-22T09:16:24;2.70;;;2.50;;
13698;SDS011;6921;53.642;9.956;2023-06-22T09:18:27;6.07;;;3.00;;
13698;SDS011;6921;53.642;9.956;2023-06-22T09:20:31;3.20;;;2.90;;
13698;SDS011;6921;53.642;9.956;2023-06-22T09:22:35;7.50;;;3.63;;
13698;SDS011;6921;53.642;9.956;2023-06-22T09:24:39;5.63;;;2.85;;
13698;SDS011;6921;53.642;9.956;2023-06-22T09:26:43;3.92;;;2.75;;
13698;SDS011;6921;53.642;9.956;2023-06-22T09:28:50;3.75;;;2.80;;
13698;SDS011;6921;53.642;9.956;2023-06-22T09:30:55;4.13;;;2.95;;
13698;SDS011;6921;53.642;9.956;2023-06-22T09:33:04;5.68;;;2.60;;
13698;SDS011;6921;53.642;9.956;2023-06-22T09:35:09;2.53;;;2.33;;
13698;SDS011;6921;53.642;9.956;2023-06-22T09:37:15;2.80;;;2.60;;
13698;SDS011;6921;53.642;9.956;2023-06-22T09:39:18;3.38;;;3.08;;
13698;SDS011;6921;53.642;9.956;2023-06-22T09:41:22;4.10;;;3.65;;
13698;SDS011;6921;53.642;9.956;2023-06-22T09:43:25;5.50;;;3.78;;
13698;SDS011;6921;53.642;9.956;2023-06-22T09:45:29;5.03;;;3.40;;
13698;SDS011;6921;53.642;9.956;2023-06-22T09:47:33;4.20;;;3.47;;
13698;SDS011;6921;53.642;9.956;2023-06-22T09:49:39;3.85;;;2.90;;
13698;SDS011;6921;53.642;9.956;2023-06-22T09:51:49;6.72;;;3.70;;
13698;SDS011;6921;53.642;9.956;2023-06-22T09:53:53;4.85;;;3.28;;
13698;SDS011;6921;53.642;9.956;2023-06-22T09:55:58;5.38;;;3.45;;
13698;SDS011;6921;53.642;9.956;2023-06-22T09:58:01;4.05;;;3.00;;
13698;SDS011;6921;53.642;9.956;2023-06-22T10:00:06;6.28;;;3.28;;
13698;SDS011;6921;53.642;9.956;2023-06-22T10:02:12;3.53;;;3.20;;
13698;SDS011;6921;53.642;9.956;2023-06-22T10:04:16;4.47;;;3.40;;
13698;SDS011;6921;53.642;9.956;2023-06-22T10:06:21;4.13;;;3.33;;
13698;SDS011;6921;53.642;9.956;2023-06-22T10:08:26;4.05;;;3.05;;
13698;SDS011;6921;53.642;9.956;2023-06-22T10:10:30;4.65;;;3.38;;
13698;SDS011;6921;53.642;9.956;2023-06-22T10:12:34;11.20;;;4.60;;
13698;SDS011;6921;53.642;9.956;2023-06-22T10:14:37;5.18;;;3.78;;
13698;SDS011;6921;53.642;9.956;2023-06-22T10:16:42;4.05;;;3.42;;
13698;SDS011;6921;53.642;9.956;2023-06-22T10:18:46;3.17;;;2.83;;
13698;SDS011;6921;53.642;9.956;2023-06-22T10:20:50;3.00;;;2.80;;
13698;SDS011;6921;53.642;9.956;2023-06-22T10:22:55;3.70;;;3.40;;
13698;SDS011;6921;53.642;9.956;2023-06-22T10:25:00;4.65;;;3.67;;
13698;SDS011;6921;53.642;9.956;2023-06-22T10:27:04;4.18;;;3.25;;
13698;SDS011;6921;53.642;9.956;2023-06-22T10:29:08;4.07;;;3.42;;
13698;SDS011;6921;53.642;9.956;2023-06-22T10:31:17;4.40;;;3.20;;
13698;SDS011;6921;53.642;9.956;2023-06-22T10:33:22;5.38;;;3.38;;
13698;SDS011;6921;53.642;9.956;2023-06-22T10:35:27;5.30;;;2.97;;
13698;SDS011;6921;53.642;9.956;2023-06-22T10:37:32;5.32;;;3.22;;
13698;SDS011;6921;53.642;9.956;2023-06-22T10:39:37;5.22;;;3.38;;
13698;SDS011;6921;53.642;9.956;2023-06-22T10:41:40;4.13;;;3.70;;
13698;SDS011;6921;53.642;9.956;2023-06-22T10:43:44;4.15;;;3.47;;
13698;SDS011;6921;53.642;9.956;2023-06-22T10:45:48;5.45;;;3.42;;
13698;SDS011;6921;53.642;9.956;2023-06-22T10:47:51;4.68;;;3.40;;
13698;SDS011;6921;53.642;9.956;2023-06-22T10:49:55;3.90;;;3.40;;
13698;SDS011;6921;53.642;9.956;2023-06-22T10:52:01;3.75;;;3.42;;
13698;SDS011;6921;53.642;9.956;2023-06-22T10:54:04;4.13;;;3.70;;
13698;SDS011;6921;53.642;9.956;2023-06-22T10:56:10;7.40;;;3.53;;
13698;SDS011;6921;53.642;9.956;2023-06-22T10:58:14;5.22;;;3.85;;
13698;SDS011;6921;53.642;9.956;2023-06-22T11:00:17;4.00;;;3.58;;
13698;SDS011;6921;53.642;9.956;2023-06-22T11:02:23;3.90;;;3.42;;
13698;SDS011;6921;53.642;9.956;2023-06-22T11:04:27;4.20;;;3.58;;
13698;SDS011;6921;53.642;9.956;2023-06-22T11:06:30;4.20;;;3.85;;
13698;SDS011;6921;53.642;9.956;2023-06-22T11:08:35;3.47;;;3.17;;
13698;SDS011;6921;53.642;9.956;2023-06-22T11:10:38;3.85;;;3.42;;
13698;SDS011;6921;53.642;9.956;2023-06-22T11:12:43;3.80;;;3.40;;
13698;SDS011;6921;53.642;9.956;2023-06-22T11:14:48;5.28;;;3.30;;
13698;SDS011;6921;53.642;9.956;2023-06-22T11:16:54;4.97;;;3.95;;
13698;SDS011;6921;53.642;9.956;2023-06-22T11:18:57;3.50;;;3.20;;
13698;SDS011;6921;53.642;9.956;2023-06-22T11:21:02;3.70;;;3.05;;
13698;SDS011;6921;53.642;9.956;2023-06-22T11:23:05;4.15;;;3.50;;
13698;SDS011;6921;53.642;9.956;2023-06-22T11:25:10;4.45;;;4.00;;
13698;SDS011;6921;53.642;9.956;2023-06-22T11:27:14;4.15;;;3.65;;
13698;SDS011;6921;53.642;9.956;2023-06-22T11:29:19;5.30;;;3.65;;
13698;SDS011;6921;53.642;9.956;2023-06-22T11:31:36;4.50;;;4.10;;
13698;SDS011;6921;53.642;9.956;2023-06-22T11:33:41;4.25;;;3.60;;
13698;SDS011;6921;53.642;9.956;2023-06-22T11:35:46;4.55;;;4.18;;
13698;SDS011;6921;53.642;9.956;2023-06-22T11:37:49;4.32;;;4.03;;
13698;SDS011;6921;53.642;9.956;2023-06-22T11:39:53;4.65;;;4.25;;
13698;SDS011;6921;53.642;9.956;2023-06-22T11:42:06;4.20;;;3.83;;
13698;SDS011;6921;53.642;9.956;2023-06-22T11:44:11;3.70;;;3.40;;
13698;SDS011;6921;53.642;9.956;2023-06-22T11:46:17;3.90;;;3.50;;
13698;SDS011;6921;53.642;9.956;2023-06-22T11:48:21;3.60;;;3.30;;
13698;SDS011;6921;53.642;9.956;2023-06-22T11:50:24;3.72;;;3.30;;
13698;SDS011;6921;53.642;9.956;2023-06-22T11:52:30;3.88;;;3.58;;
13698;SDS011;6921;53.642;9.956;2023-06-22T11:54:33;6.18;;;3.42;;
13698;SDS011;6921;53.642;9.956;2023-06-22T11:56:37;5.70;;;3.92;;
13698;SDS011;6921;53.642;9.956;2023-06-22T11:58:41;3.92;;;3.47;;
13698;SDS011;6921;53.642;9.956;2023-06-22T12:00:44;4.60;;;4.30;;
13698;SDS011;6921;53.642;9.956;2023-06-22T12:02:53;4.43;;;3.70;;
13698;SDS011;6921;53.642;9.956;2023-06-22T12:04:59;4.03;;;3.60;;
13698;SDS011;6921;53.642;9.956;2023-06-22T12:07:05;4.97;;;3.90;;
13698;SDS011;6921;53.642;9.956;2023-06-22T12:09:09;4.40;;;4.03;;
13698;SDS011;6921;53.642;9.956;2023-06-22T12:11:15;4.20;;;3.90;;
13698;SDS011;6921;53.642;9.956;2023-06-22T12:13:18;5.25;;;4.20;;
13698;SDS011;6921;53.642;9.956;2023-06-22T12:15:22;6.40;;;3.88;;
13698;SDS011;6921;53.642;9.956;2023-06-22T12:17:25;4.20;;;3.88;;
13698;SDS011;6921;53.642;9.956;2023-06-22T12:19:30;5.38;;;4.43;;
13698;SDS011;6921;53.642;9.956;2023-06-22T12:21:34;4.85;;;4.45;;
13698;SDS011;6921;53.642;9.956;2023-06-22T12:23:37;4.35;;;4.00;;
13698;SDS011;6921;53.642;9.956;2023-06-22T12:25:41;6.25;;;4.20;;
13698;SDS011;6921;53.642;9.956;2023-06-22T12:27:47;4.47;;;3.97;;
13698;SDS011;6921;53.642;9.956;2023-06-22T12:29:51;4.07;;;3.78;;
13698;SDS011;6921;53.642;9.956;2023-06-22T12:31:55;4.78;;;4.15;;
13698;SDS011;6921;53.642;9.956;2023-06-22T12:33:59;4.68;;;4.20;;
13698;SDS011;6921;53.642;9.956;2023-06-22T12:36:04;5.20;;;3.92;;
13698;SDS011;6921;53.642;9.956;2023-06-22T12:38:08;5.10;;;4.40;;
13698;SDS011;6921;53.642;9.956;2023-06-22T12:40:13;5.72;;;4.32;;
13698;SDS011;6921;53.642;9.956;2023-06-22T12:42:17;4.40;;;4.00;;
13698;SDS011;6921;53.642;9.956;2023-06-22T12:44:20;5.55;;;4.18;;